createdAt,value
2019-05-23T00:01:28.147Z,13.20
2019-05-23T00:04:16.513Z,13.20
2019-05-23T00:06:47.505Z,13.20
2019-05-23T00:09:18.399Z,13.10
2019-05-23T00:12:00.686Z,13.10
2019-05-23T00:14:44.025Z,13.10
2019-05-23T00:17:18.816Z,13.10
2019-05-23T00:19:50.495Z,13.10
2019-05-23T00:22:22.227Z,13.10
2019-05-23T00:24:52.913Z,13.10
2019-05-23T00:27:23.926Z,13.00
2019-05-23T00:29:54.903Z,13.10
2019-05-23T00:32:30.098Z,13.10
2019-05-23T00:35:02.170Z,13.10
2019-05-23T00:37:33.821Z,13.00
2019-05-23T00:40:04.615Z,13.00
2019-05-23T00:42:34.691Z,13.00
2019-05-23T00:45:05.734Z,13.00
2019-05-23T00:47:37.004Z,13.00
2019-05-23T00:50:08.591Z,13.00
2019-05-23T00:52:38.787Z,13.00
2019-05-23T00:55:10.213Z,13.00
2019-05-23T00:57:41.549Z,13.00
2019-05-23T01:00:16.292Z,12.90
2019-05-23T01:02:46.822Z,12.90
2019-05-23T01:05:17.033Z,12.90
2019-05-23T01:07:48.287Z,12.90
2019-05-23T01:10:19.443Z,12.90
2019-05-23T01:12:51.371Z,12.90
2019-05-23T01:15:24.272Z,12.80
2019-05-23T01:17:55.208Z,12.80
2019-05-23T01:20:31.522Z,12.80
2019-05-23T01:23:02.719Z,12.80
2019-05-23T01:25:34.997Z,12.80
2019-05-23T01:28:06.369Z,12.80
2019-05-23T01:30:41.689Z,12.70
2019-05-23T01:33:12.711Z,12.70
2019-05-23T01:35:42.958Z,12.70
2019-05-23T01:38:13.688Z,12.70
2019-05-23T01:40:44.006Z,12.60
2019-05-23T01:43:14.449Z,12.60
2019-05-23T01:45:45.354Z,12.60
2019-05-23T01:48:17.093Z,12.60
2019-05-23T01:50:47.960Z,12.60
2019-05-23T01:53:19.405Z,12.60
2019-05-23T01:55:49.632Z,12.60
2019-05-23T01:58:20.365Z,12.50
2019-05-23T02:00:51.032Z,12.50
2019-05-23T02:03:21.080Z,12.50
2019-05-23T02:05:51.459Z,12.50
2019-05-23T02:08:22.251Z,12.50
2019-05-23T02:10:52.625Z,12.50
2019-05-23T02:13:23.027Z,12.50
2019-05-23T02:15:53.555Z,12.50
2019-05-23T02:18:24.313Z,12.40
2019-05-23T02:20:54.630Z,12.50
2019-05-23T02:23:25.986Z,12.50
2019-05-23T02:25:57.760Z,12.40
2019-05-23T02:28:27.827Z,12.40
2019-05-23T02:30:58.514Z,12.40
2019-05-23T02:33:29.249Z,12.40
2019-05-23T02:35:59.589Z,12.30
2019-05-23T02:38:55.749Z,12.30
2019-05-23T02:41:53.944Z,12.30
2019-05-23T02:44:25.728Z,12.30
2019-05-23T02:47:13.920Z,12.30
2019-05-23T02:49:46.655Z,12.30
2019-05-23T02:52:42.320Z,12.20
2019-05-23T02:55:20.909Z,12.20
2019-05-23T02:57:52.162Z,12.20
2019-05-23T03:01:12.564Z,12.10
2019-05-23T03:03:46.013Z,12.10
2019-05-23T03:06:19.543Z,12.10
2019-05-23T03:08:49.639Z,12.10
2019-05-23T03:11:39.890Z,12.10
2019-05-23T03:14:11.586Z,12.00
2019-05-23T03:16:44.488Z,12.00
2019-05-23T03:19:29.160Z,12.00
2019-05-23T03:22:28.318Z,12.00
2019-05-23T03:25:04.484Z,12.00
2019-05-23T03:27:41.805Z,11.90
2019-05-23T03:30:17.170Z,11.90
2019-05-23T03:32:49.888Z,11.90
2019-05-23T03:35:39.303Z,11.90
2019-05-23T03:38:10.625Z,11.90
2019-05-23T03:40:41.294Z,11.90
2019-05-23T03:43:12.559Z,11.90
2019-05-23T03:45:50.290Z,11.80
2019-05-23T03:48:21.531Z,11.80
2019-05-23T03:50:52.139Z,11.80
2019-05-23T03:53:24.122Z,11.80
2019-05-23T03:55:54.590Z,11.80
2019-05-23T03:58:25.384Z,11.80
2019-05-23T04:00:57.285Z,11.80
2019-05-23T04:03:29.759Z,11.80
2019-05-23T04:06:00.478Z,11.80
2019-05-23T04:08:31.939Z,11.80
2019-05-23T04:11:03.133Z,11.80
2019-05-23T04:13:33.476Z,11.80
2019-05-23T04:16:03.730Z,11.80
2019-05-23T04:18:34.121Z,11.80
2019-05-23T04:21:04.487Z,11.80
2019-05-23T04:23:35.171Z,11.80
2019-05-23T04:26:06.167Z,11.70
2019-05-23T04:28:36.486Z,11.80
2019-05-23T04:31:07.024Z,11.70
2019-05-23T04:33:37.899Z,11.80
2019-05-23T04:36:08.396Z,11.80
2019-05-23T04:38:39.158Z,11.80
2019-05-23T04:41:09.426Z,11.80
2019-05-23T04:43:39.531Z,11.90
2019-05-23T04:46:09.795Z,11.90
2019-05-23T04:48:40.091Z,12.00
2019-05-23T04:51:10.826Z,12.00
2019-05-23T04:53:41.313Z,12.10
2019-05-23T04:56:11.661Z,12.20
2019-05-23T04:58:41.871Z,12.30
2019-05-23T05:01:12.443Z,12.40
2019-05-23T05:03:46.369Z,12.50
2019-05-23T05:06:16.548Z,12.60
2019-05-23T05:08:46.745Z,12.80
2019-05-23T05:11:16.237Z,12.90
2019-05-23T05:13:47.127Z,13.00
2019-05-23T05:16:17.770Z,13.10
2019-05-23T05:18:48.683Z,13.20
2019-05-23T05:21:19.557Z,13.30
2019-05-23T05:23:50.036Z,13.30
2019-05-23T05:26:24.189Z,13.40
2019-05-23T05:28:54.883Z,13.50
2019-05-23T05:31:25.451Z,13.50
2019-05-23T05:33:56.112Z,13.60
2019-05-23T05:36:26.416Z,13.60
2019-05-23T05:38:57.678Z,13.70
2019-05-23T05:41:28.164Z,13.80
2019-05-23T05:43:58.620Z,13.80
2019-05-23T05:46:29.259Z,13.80
2019-05-23T05:48:59.547Z,13.90
2019-05-23T05:51:30.439Z,13.90
2019-05-23T05:54:01.349Z,14.00
2019-05-23T05:56:31.529Z,14.10
2019-05-23T05:59:01.781Z,14.10
2019-05-23T06:01:34.539Z,14.30
2019-05-23T06:04:05.342Z,14.30
2019-05-23T06:06:43.821Z,14.50
2019-05-23T06:09:20.443Z,14.60
2019-05-23T06:11:51.006Z,14.70
2019-05-23T06:14:21.153Z,14.80
2019-05-23T06:16:53.220Z,15.00
2019-05-23T06:19:23.459Z,15.10
2019-05-23T06:21:53.859Z,15.30
2019-05-23T06:24:41.894Z,15.30
2019-05-23T06:26:55.870Z,15.50
2019-05-23T06:29:25.999Z,15.60
2019-05-23T06:31:56.374Z,15.80
2019-05-23T06:34:26.766Z,16.00
2019-05-23T06:36:57.388Z,16.10
2019-05-23T06:39:27.957Z,16.30
2019-05-23T06:41:58.533Z,16.40
2019-05-23T06:44:28.775Z,16.60
2019-05-23T06:47:00.256Z,16.70
2019-05-23T06:49:30.786Z,16.90
2019-05-23T06:52:00.959Z,17.00
2019-05-23T06:54:31.327Z,17.10
2019-05-23T06:57:01.399Z,17.20
2019-05-23T06:59:31.524Z,17.40
2019-05-23T07:02:02.459Z,17.60
2019-05-23T07:04:33.204Z,17.80
2019-05-23T07:07:04.493Z,18.00
2019-05-23T07:09:34.825Z,18.30
2019-05-23T07:12:05.856Z,18.60
2019-05-23T07:14:36.586Z,18.90
2019-05-23T07:17:07.162Z,19.30
2019-05-23T07:19:37.573Z,19.50
2019-05-23T07:22:07.825Z,19.80
2019-05-23T07:24:37.957Z,20.10
2019-05-23T07:27:08.069Z,20.30
2019-05-23T07:29:38.322Z,20.50
2019-05-23T07:32:08.779Z,20.60
2019-05-23T07:34:39.153Z,20.80
2019-05-23T07:37:09.518Z,20.90
2019-05-23T07:39:40.118Z,21.00
2019-05-23T07:42:11.211Z,21.10
2019-05-23T07:44:48.252Z,21.10
2019-05-23T07:47:14.879Z,21.20
2019-05-23T07:49:45.316Z,21.30
2019-05-23T07:52:15.686Z,21.40
2019-05-23T07:54:51.372Z,21.50
2019-05-23T07:57:21.938Z,21.60
2019-05-23T07:59:52.609Z,21.70
2019-05-23T08:02:33.218Z,21.90
2019-05-23T08:05:04.501Z,22.00
2019-05-23T08:07:35.814Z,22.10
2019-05-23T08:10:08.237Z,22.30
2019-05-23T08:12:38.810Z,22.40
2019-05-23T08:15:09.614Z,22.60
2019-05-23T08:17:39.851Z,22.80
2019-05-23T08:20:12.484Z,22.90
2019-05-23T08:22:42.607Z,22.90
2019-05-23T08:25:13.098Z,23.10
2019-05-23T08:27:44.082Z,23.20
2019-05-23T08:30:15.494Z,23.30
2019-05-23T08:32:45.611Z,23.40
2019-05-23T08:35:18.063Z,23.50
2019-05-23T08:37:48.442Z,23.60
2019-05-23T08:40:19.812Z,23.60
2019-05-23T08:42:50.196Z,23.50
2019-05-23T08:45:22.083Z,23.40
2019-05-23T08:47:52.543Z,23.30
2019-05-23T08:50:24.102Z,23.20
2019-05-23T08:52:55.398Z,23.20
2019-05-23T08:55:27.837Z,23.10
2019-05-23T08:57:58.977Z,22.90
2019-05-23T09:00:30.157Z,22.80
2019-05-23T09:03:01.032Z,22.70
2019-05-23T09:05:32.215Z,22.50
2019-05-23T09:08:03.707Z,22.40
2019-05-23T09:10:34.495Z,22.20
2019-05-23T09:13:04.903Z,22.10
2019-05-23T09:15:35.229Z,22.00
2019-05-23T09:18:05.857Z,21.90
2019-05-23T09:20:36.200Z,21.90
2019-05-23T09:23:06.473Z,21.80
2019-05-23T09:25:36.656Z,21.80
2019-05-23T09:28:08.182Z,21.90
2019-05-23T09:30:38.502Z,21.90
2019-05-23T09:33:09.365Z,21.90
2019-05-23T09:35:39.811Z,21.90
2019-05-23T09:38:10.256Z,21.80
2019-05-23T09:40:40.416Z,21.80
2019-05-23T09:43:11.003Z,21.80
2019-05-23T09:45:41.369Z,21.70
2019-05-23T09:48:11.480Z,21.70
2019-05-23T09:50:41.596Z,21.60
2019-05-23T09:53:11.772Z,21.60
2019-05-23T09:55:41.969Z,21.50
2019-05-23T09:58:12.015Z,21.50
2019-05-23T10:00:42.276Z,21.40
2019-05-23T10:03:12.944Z,21.40
2019-05-23T10:05:44.164Z,21.30
2019-05-23T10:08:14.512Z,21.30
2019-05-23T10:10:44.870Z,21.30
2019-05-23T10:13:15.592Z,21.30
2019-05-23T10:16:06.754Z,21.30
2019-05-23T10:18:37.281Z,21.30
2019-05-23T10:21:07.451Z,21.30
2019-05-23T10:23:37.604Z,21.30
2019-05-23T10:26:08.025Z,21.30
2019-05-23T10:28:38.167Z,21.30
2019-05-23T10:31:09.955Z,21.30
2019-05-23T10:33:40.161Z,21.30
2019-05-23T10:36:10.348Z,21.20
2019-05-23T10:38:40.967Z,21.20
2019-05-23T10:41:11.638Z,21.20
2019-05-23T10:43:41.697Z,21.20
2019-05-23T10:46:11.955Z,21.30
2019-05-23T10:48:42.318Z,21.30
2019-05-23T10:51:12.595Z,21.40
2019-05-23T10:53:42.851Z,21.40
2019-05-23T10:56:13.099Z,21.40
2019-05-23T10:58:43.787Z,21.40
2019-05-23T11:01:14.353Z,21.40
2019-05-23T11:03:45.069Z,21.40
2019-05-23T11:06:17.089Z,21.40
2019-05-23T11:08:47.947Z,21.40
2019-05-23T11:11:18.162Z,21.40
2019-05-23T11:13:48.760Z,21.40
2019-05-23T11:16:19.375Z,21.40
2019-05-23T11:18:49.904Z,21.50
2019-05-23T11:21:20.047Z,21.50
2019-05-23T11:23:52.512Z,21.60
2019-05-23T11:26:22.600Z,21.60
2019-05-23T11:28:52.928Z,21.60
2019-05-23T11:31:23.183Z,21.70
2019-05-23T11:33:53.145Z,21.70
2019-05-23T11:36:34.832Z,21.80
2019-05-23T11:38:55.324Z,21.80
2019-05-23T11:41:25.561Z,21.80
2019-05-23T11:43:55.817Z,21.90
2019-05-23T11:46:29.150Z,21.90
2019-05-23T11:49:00.146Z,22.00
2019-05-23T11:51:30.965Z,22.00
2019-05-23T11:54:08.117Z,22.00
2019-05-23T11:56:33.739Z,22.00
2019-05-23T11:59:04.141Z,22.00
2019-05-23T12:01:43.334Z,22.00
2019-05-23T12:04:15.743Z,22.00
2019-05-23T12:07:06.078Z,22.00
2019-05-23T12:09:36.282Z,22.10
2019-05-23T12:12:06.718Z,22.10
2019-05-23T12:14:38.384Z,22.10
2019-05-23T12:17:08.831Z,22.10
2019-05-23T12:19:39.382Z,22.20
2019-05-23T12:22:09.805Z,22.20
2019-05-23T12:24:40.297Z,22.20
2019-05-23T12:27:11.048Z,22.30
2019-05-23T12:29:41.176Z,22.20
2019-05-23T12:32:13.380Z,22.30
2019-05-23T12:34:44.054Z,22.30
2019-05-23T12:37:19.162Z,22.40
2019-05-23T12:39:46.203Z,22.30
2019-05-23T12:42:16.281Z,22.40
2019-05-23T12:44:46.216Z,22.40
2019-05-23T12:47:24.533Z,22.40
2019-05-23T12:49:58.791Z,22.40
2019-05-23T12:52:29.214Z,22.50
2019-05-23T12:54:59.704Z,22.50
2019-05-23T12:57:30.211Z,22.50
2019-05-23T13:00:00.709Z,22.60
2019-05-23T13:02:31.002Z,22.60
2019-05-23T13:05:01.873Z,22.60
2019-05-23T13:07:36.459Z,22.60
2019-05-23T13:10:05.128Z,22.70
2019-05-23T13:12:35.514Z,22.70
2019-05-23T13:15:06.498Z,22.70
2019-05-23T13:17:36.992Z,22.70
2019-05-23T13:20:07.325Z,22.70
2019-05-23T13:22:37.696Z,22.60
2019-05-23T13:25:08.398Z,22.60
2019-05-23T13:27:38.569Z,22.60
2019-05-23T13:30:09.102Z,22.60
2019-05-23T13:32:39.257Z,22.60
2019-05-23T13:35:09.734Z,22.60
2019-05-23T13:37:52.875Z,22.60
2019-05-23T13:40:13.820Z,22.60
2019-05-23T13:42:44.322Z,22.70
2019-05-23T13:45:16.052Z,22.70
2019-05-23T13:47:46.171Z,22.70
2019-05-23T13:50:17.373Z,22.80
2019-05-23T13:52:48.149Z,22.80
2019-05-23T13:55:18.734Z,22.80
2019-05-23T13:57:49.265Z,22.90
2019-05-23T14:00:21.368Z,22.90
2019-05-23T14:02:51.700Z,22.90
2019-05-23T14:05:22.634Z,23.00
2019-05-23T14:08:10.031Z,23.00
2019-05-23T14:10:24.852Z,23.00
2019-05-23T14:12:55.007Z,23.00
2019-05-23T14:15:28.224Z,22.90
2019-05-23T14:17:58.565Z,22.90
2019-05-23T14:20:28.846Z,23.00
2019-05-23T14:23:04.179Z,23.00
2019-05-23T14:25:34.309Z,23.00
2019-05-23T14:28:08.849Z,23.10
2019-05-23T14:31:04.819Z,23.10
2019-05-23T14:34:08.866Z,23.10
2019-05-23T14:36:47.023Z,23.10
2019-05-23T14:39:32.910Z,23.10
2019-05-23T14:42:08.924Z,23.00
2019-05-23T14:44:39.459Z,23.10
2019-05-23T14:47:28.657Z,23.00
2019-05-23T14:50:15.264Z,23.00
2019-05-23T14:52:45.575Z,23.00
2019-05-23T14:55:16.623Z,23.00
2019-05-23T14:57:47.391Z,23.00
2019-05-23T15:00:18.059Z,23.00
2019-05-23T15:02:48.613Z,23.00
2019-05-23T15:05:18.805Z,23.00
2019-05-23T15:07:49.024Z,23.00
2019-05-23T15:10:19.616Z,23.00
2019-05-23T15:12:49.771Z,23.00
2019-05-23T15:15:20.101Z,23.00
2019-05-23T15:17:50.058Z,23.10
2019-05-23T15:20:20.382Z,23.10
2019-05-23T15:22:50.527Z,23.10
2019-05-23T15:25:20.610Z,23.10
2019-05-23T15:27:50.657Z,23.10
2019-05-23T15:30:21.164Z,23.10
2019-05-23T15:32:51.291Z,23.10
2019-05-23T15:35:21.556Z,23.00
2019-05-23T15:37:51.962Z,23.00
2019-05-23T15:40:22.893Z,23.00
2019-05-23T15:42:53.063Z,23.00
2019-05-23T15:45:23.235Z,23.00
2019-05-23T15:47:53.503Z,23.00
2019-05-23T15:50:27.357Z,23.00
2019-05-23T15:53:03.109Z,23.00
2019-05-23T15:56:26.155Z,22.90
2019-05-23T15:58:45.095Z,22.90
2019-05-23T16:01:25.358Z,22.90
2019-05-23T16:04:12.427Z,22.90
2019-05-23T16:06:43.737Z,22.90
2019-05-23T16:09:29.172Z,22.90
2019-05-23T16:11:52.890Z,22.90
2019-05-23T16:14:23.648Z,22.90
2019-05-23T16:16:56.675Z,22.90
2019-05-23T16:19:31.718Z,22.90
2019-05-23T16:22:02.233Z,22.90
2019-05-23T16:24:32.463Z,22.80
2019-05-23T16:27:03.621Z,22.80
2019-05-23T16:29:34.322Z,22.80
2019-05-23T16:32:05.067Z,22.80
2019-05-23T16:34:37.748Z,22.80
2019-05-23T16:37:07.904Z,22.70
2019-05-23T16:39:47.586Z,22.70
2019-05-23T16:42:13.207Z,22.70
2019-05-23T16:44:43.954Z,22.60
2019-05-23T16:47:14.014Z,22.60
2019-05-23T16:49:44.411Z,22.60
2019-05-23T16:52:17.444Z,22.60
2019-05-23T16:54:49.368Z,22.60
2019-05-23T16:57:27.082Z,22.50
2019-05-23T17:00:13.184Z,22.50
2019-05-23T17:02:57.129Z,22.50
2019-05-23T17:05:38.241Z,22.50
2019-05-23T17:08:20.303Z,22.50
2019-05-23T17:11:04.121Z,22.50
2019-05-23T17:13:38.082Z,22.50
2019-05-23T17:16:21.991Z,22.40
2019-05-23T17:18:57.799Z,22.40
2019-05-23T17:21:52.769Z,22.40
2019-05-23T17:24:32.411Z,22.30
2019-05-23T17:27:20.229Z,22.40
2019-05-23T17:29:54.568Z,22.30
2019-05-23T17:32:29.459Z,22.30
2019-05-23T17:34:59.982Z,22.30
2019-05-23T17:37:30.071Z,22.20
2019-05-23T17:40:00.434Z,22.20
2019-05-23T17:42:30.646Z,22.10
2019-05-23T17:45:00.843Z,22.10
2019-05-23T17:48:40.628Z,22.00
2019-05-23T17:51:21.976Z,22.00
2019-05-23T17:54:05.071Z,22.00
2019-05-23T17:56:37.232Z,21.90
2019-05-23T17:59:12.916Z,21.90
2019-05-23T18:02:04.476Z,21.90
2019-05-23T18:04:39.793Z,21.80
2019-05-23T18:07:30.290Z,21.80
2019-05-23T18:10:04.031Z,21.70
2019-05-23T18:12:34.046Z,21.70
2019-05-23T18:15:11.394Z,21.60
2019-05-23T18:17:44.326Z,21.60
2019-05-23T18:20:22.994Z,21.50
2019-05-23T18:25:40.455Z,21.40
2019-05-23T18:28:19.937Z,21.40
2019-05-23T18:31:08.530Z,21.30
2019-05-23T18:33:34.091Z,21.30
2019-05-23T18:36:21.554Z,21.30
2019-05-23T18:38:57.955Z,21.20
2019-05-23T18:41:43.504Z,21.20
2019-05-23T18:44:10.520Z,21.10
2019-05-23T18:46:53.969Z,21.10
2019-05-23T18:49:38.785Z,21.00
2019-05-23T18:52:19.615Z,21.00
2019-05-23T18:54:56.396Z,20.90
2019-05-23T18:57:34.517Z,20.90
2019-05-23T19:00:23.669Z,20.80
2019-05-23T19:02:56.607Z,20.70
2019-05-23T19:05:34.751Z,20.70
2019-05-23T19:08:10.404Z,20.70
2019-05-23T19:10:49.911Z,20.60
2019-05-23T19:14:58.328Z,20.50
2019-05-23T19:16:19.078Z,20.50
2019-05-23T19:18:57.758Z,20.40
2019-05-23T19:21:45.027Z,20.40
2019-05-23T19:24:20.966Z,20.30
2019-05-23T19:26:52.167Z,20.30
2019-05-23T19:29:39.640Z,20.20
2019-05-23T19:32:27.760Z,20.20
2019-05-23T19:35:01.532Z,20.10
2019-05-23T19:40:43.196Z,20.00
2019-05-23T19:43:27.297Z,20.00
2019-05-23T19:45:57.253Z,19.90
2019-05-23T19:48:36.238Z,19.90
2019-05-23T19:51:13.044Z,19.80
2019-05-23T19:53:50.441Z,19.70
2019-05-23T19:56:39.983Z,19.70
2019-05-23T19:59:16.359Z,19.60
2019-05-23T20:02:05.467Z,19.60
2019-05-23T20:04:37.929Z,19.50
2019-05-23T20:07:09.106Z,19.50
2019-05-23T20:09:39.215Z,19.40
2019-05-23T20:12:09.392Z,19.40
2019-05-23T20:14:39.961Z,19.40
2019-05-23T20:17:10.399Z,19.30
2019-05-23T20:19:40.793Z,19.30
2019-05-23T20:22:11.638Z,19.20
2019-05-23T20:24:41.801Z,19.20
2019-05-23T20:27:12.101Z,19.10
2019-05-23T20:29:42.164Z,19.10
2019-05-23T20:32:13.429Z,19.10
2019-05-23T20:34:43.458Z,19.00
2019-05-23T20:37:13.498Z,19.00
2019-05-23T20:39:43.724Z,19.00
2019-05-23T20:42:13.868Z,18.90
2019-05-23T20:44:43.897Z,18.90
2019-05-23T20:47:14.410Z,18.80
2019-05-23T20:49:44.522Z,18.80
2019-05-23T20:52:14.582Z,18.70
2019-05-23T20:54:44.889Z,18.70
2019-05-23T20:57:15.085Z,18.70
2019-05-23T20:59:45.471Z,18.60
2019-05-23T21:02:16.179Z,18.60
2019-05-23T21:04:46.367Z,18.60
2019-05-23T21:07:16.464Z,18.60
2019-05-23T21:09:46.502Z,18.50
2019-05-23T21:12:29.498Z,18.50
2019-05-23T21:14:48.448Z,18.50
2019-05-23T21:17:18.853Z,18.40
2019-05-23T21:19:49.449Z,18.40
2019-05-23T21:22:19.640Z,18.40
2019-05-23T21:24:49.668Z,18.40
2019-05-23T21:27:19.789Z,18.30
2019-05-23T21:29:49.937Z,18.30
2019-05-23T21:32:20.087Z,18.20
2019-05-23T21:34:50.148Z,18.20
2019-05-23T21:37:20.472Z,18.10
2019-05-23T21:39:50.549Z,18.10
2019-05-23T21:42:20.937Z,18.00
2019-05-23T21:44:50.938Z,18.00
2019-05-23T21:47:20.978Z,18.00
2019-05-23T21:49:51.085Z,17.90
2019-05-23T21:52:21.138Z,17.90
2019-05-23T21:54:52.042Z,17.80
2019-05-23T21:57:22.364Z,17.80
2019-05-23T21:59:52.494Z,17.80
2019-05-23T22:02:32.838Z,17.70
2019-05-23T22:05:12.670Z,17.70
2019-05-23T22:07:43.408Z,17.70
2019-05-23T22:10:13.711Z,17.60
2019-05-23T22:12:44.138Z,17.60
2019-05-23T22:15:20.334Z,17.60
2019-05-23T22:17:50.758Z,17.50
2019-05-23T22:20:21.390Z,17.50
2019-05-23T22:22:51.656Z,17.40
2019-05-23T22:25:33.367Z,17.40
2019-05-23T22:28:03.556Z,17.40
2019-05-23T22:30:34.028Z,17.30
2019-05-23T22:33:04.340Z,17.30
2019-05-23T22:35:34.571Z,17.30
2019-05-23T22:38:05.132Z,17.30
2019-05-23T22:40:38.260Z,17.20
2019-05-23T22:43:20.223Z,17.20
2019-05-23T22:45:39.985Z,17.20
2019-05-23T22:48:10.290Z,17.10
2019-05-23T22:50:40.475Z,17.10
2019-05-23T22:53:10.676Z,17.10
2019-05-23T22:55:41.081Z,17.10
2019-05-23T22:58:11.200Z,17.00
2019-05-23T23:00:43.511Z,17.00
2019-05-23T23:03:13.545Z,17.00
2019-05-23T23:05:43.825Z,17.00
2019-05-23T23:08:14.143Z,16.90
2019-05-23T23:10:44.481Z,16.90
2019-05-23T23:13:14.950Z,16.90
2019-05-23T23:15:45.164Z,16.80
2019-05-23T23:18:15.272Z,16.80
2019-05-23T23:20:46.050Z,16.80
2019-05-23T23:23:16.889Z,16.70
2019-05-23T23:25:47.370Z,16.70
2019-05-23T23:28:17.499Z,16.60
2019-05-23T23:30:49.232Z,16.60
2019-05-23T23:33:19.577Z,16.50
2019-05-23T23:35:49.600Z,16.50
2019-05-23T23:38:19.774Z,16.40
2019-05-23T23:40:50.010Z,16.40
2019-05-23T23:43:20.515Z,16.40
2019-05-23T23:46:08.497Z,16.30
2019-05-23T23:48:56.356Z,16.30
2019-05-23T23:51:44.122Z,16.20
2019-05-23T23:54:31.919Z,16.20
2019-05-23T23:57:19.573Z,16.10
2019-05-23T23:59:48.705Z,16.10
